Wednesday, October 17, 2018, 11:08 AM CDT
Back to Local

KUGN, Chicago/waukegan Regional

Location: Waukegan, IL, United States Lat: 42.417
Local Time: 11:08 AM CDT (16:08 GMT) Lon: -87.867
Time Zone: US/Central Elev: 728 ft

Show me the last for .
Show Decoded

2018-10-17 09:55 METAR KUGN 171455Z COR 34009G20KT 10SM BKN039 06/M03 A3026 RMK AO2 SLP254
                 T00611033 51040 =
2018-10-17 08:55 METAR KUGN 171355Z 30013G23KT 10SM BKN037 05/M03 A3023 RMK AO2 SLP242 T00501033
                 =
2018-10-17 07:55 METAR KUGN 171255Z 31009G14KT 10SM OVC038 05/M02 A3019 RMK AO2 SLP228 T00501017
                 =
2018-10-17 06:55 METAR KUGN 171155Z 31006KT 10SM SCT038 04/M01 A3014 RMK AO2 SLP212 T00391011
                 10083 20039 51025 =
2018-10-17 05:55 METAR KUGN 171055Z 30006KT 10SM CLR 04/M01 A3012 RMK AO2 SLP203 T00441006 =
2018-10-17 04:55 METAR KUGN 170955Z AUTO 31005KT 10SM CLR 06/M01 A3009 RMK AO2 SLP191 T00561006 =
2018-10-17 03:55 METAR KUGN 170855Z AUTO 30006KT 10SM CLR 07/00 A3007 RMK AO2 SLP184 T00670000
                 53011 =
2018-10-17 02:55 METAR KUGN 170755Z AUTO VRB05KT 10SM CLR 07/00 A3004 RMK AO2 SLP175 T00720000 =
2018-10-17 01:55 METAR KUGN 170655Z AUTO VRB04KT 10SM CLR 07/01 A3004 RMK AO2 SLP174 T00720006 =
2018-10-17 00:55 METAR KUGN 170555Z AUTO 26003KT 10SM CLR 08/01 A3004 RMK AO2 SLP172 T00780011
                 10117 20078 401441006 51007 =
2018-10-16 22:55 METAR KUGN 170355Z AUTO VRB04KT 10SM CLR 09/02 A3003 RMK AO2 SLP170 T00940017 =
2018-10-16 21:55 METAR KUGN 170255Z AUTO 24006KT 10SM CLR 09/02 A3001 RMK AO2 SLP167 T00940022
                 53010 =
2018-10-16 20:55 METAR KUGN 170155Z AUTO 23007KT 10SM CLR 09/02 A2999 RMK AO2 SLP162 T00890022 =
2018-10-16 19:55 METAR KUGN 170055Z 23006KT 10SM CLR 09/02 A3000 RMK AO2 SLP164 LAST T00940017 =
2018-10-16 18:55 METAR KUGN 162355Z 24005KT 10SM CLR 12/01 A2998 RMK AO2 SLP159 T01170011 10144
                 20117 53009 =
2018-10-16 17:55 METAR KUGN 162255Z 26009G14KT 10SM CLR 13/01 A2997 RMK AO2 SLP152 T01330006 =
2018-10-16 16:55 METAR KUGN 162155Z 26009G20KT 10SM CLR 14/00 A2995 RMK AO2 PK WND 23027/2104
                 SLP147 T01440000 =
2018-10-16 15:55 METAR KUGN 162055Z 23019G26KT 10SM CLR 14/00 A2995 RMK AO2 PK WND 23026/2029
                 SLP148 T01440000 56021 =
2018-10-16 14:55 METAR KUGN 161955Z 24019G27KT 10SM CLR 14/M01 A2997 RMK AO2 PK WND 23029/1914
                 SLP153 T01441011 =
2018-10-16 13:55 METAR KUGN 161855Z 23021G32KT 10SM CLR 13/M02 A2998 RMK AO2 PK WND 22032/1853
                 SLP158 T01331017 =
2018-10-16 12:55 METAR KUGN 161755Z 23022G29KT 10SM CLR 12/M01 A3002 RMK AO2 PK WND 23029/1748
                 SLP170 T01221011 10122 20006 58028 =
2018-10-16 11:55 METAR KUGN 161655Z 23016G24KT 10SM CLR 11/M01 A3005 RMK AO2 PK WND 22028/1613
                 SLP182 T01061011 =

Support USWX by starting your Amazon purchase here.